createdAt,value
2022-12-18T00:01:18.543Z,55.00
2022-12-18T00:03:46.493Z,51.57
2022-12-18T00:06:15.692Z,53.33
2022-12-18T00:08:43.338Z,53.70
2022-12-18T00:11:13.298Z,53.33
2022-12-18T00:13:41.263Z,54.10
2022-12-18T00:16:10.792Z,52.27
2022-12-18T00:18:38.510Z,50.37
2022-12-18T00:21:07.571Z,53.93
2022-12-18T00:23:35.962Z,48.83
2022-12-18T00:26:04.415Z,50.90
2022-12-18T00:28:31.791Z,55.70
2022-12-18T00:31:06.750Z,50.53
2022-12-18T00:33:34.051Z,47.03
2022-12-18T00:36:05.429Z,51.53
2022-12-18T00:38:33.281Z,50.97
2022-12-18T00:41:00.537Z,48.83
2022-12-18T00:43:27.914Z,51.57
2022-12-18T00:45:55.360Z,48.30
2022-12-18T00:48:22.710Z,45.07
2022-12-18T00:50:50.690Z,45.53
2022-12-18T00:53:17.967Z,44.20
2022-12-18T00:55:45.309Z,44.33
2022-12-18T00:58:13.179Z,44.13
2022-12-18T01:00:40.469Z,43.50
2022-12-18T01:03:14.357Z,46.37
2022-12-18T01:05:42.177Z,42.57
2022-12-18T01:08:09.494Z,40.93
2022-12-18T01:10:36.761Z,40.77
2022-12-18T01:13:04.381Z,41.47
2022-12-18T01:15:31.606Z,44.83
2022-12-18T01:17:58.877Z,42.20
2022-12-18T01:20:27.891Z,38.67
2022-12-18T01:22:55.115Z,38.57
2022-12-18T01:25:22.398Z,39.23
2022-12-18T01:27:51.592Z,38.17
2022-12-18T01:30:18.834Z,34.57
2022-12-18T01:32:46.311Z,36.40
2022-12-18T01:35:14.039Z,35.20
2022-12-18T01:37:41.247Z,33.47
2022-12-18T01:40:09.155Z,33.93
2022-12-18T01:42:36.404Z,31.33
2022-12-18T01:45:06.743Z,33.17
2022-12-18T01:47:36.554Z,31.33
2022-12-18T01:50:10.628Z,33.17
2022-12-18T01:52:38.941Z,33.30
2022-12-18T01:55:06.992Z,35.70
2022-12-18T01:57:36.112Z,35.33
2022-12-18T02:00:06.506Z,34.20
2022-12-18T02:02:54.368Z,36.80
2022-12-18T02:05:36.357Z,35.63
2022-12-18T02:08:18.923Z,34.17
2022-12-18T02:10:48.429Z,34.87
2022-12-18T02:13:33.926Z,36.97
2022-12-18T02:16:09.485Z,33.97
2022-12-18T02:18:42.702Z,33.03
2022-12-18T02:21:22.441Z,29.37
2022-12-18T02:23:56.594Z,28.17
2022-12-18T02:26:28.093Z,27.37
2022-12-18T02:28:58.132Z,26.77
2022-12-18T02:31:29.188Z,27.90
2022-12-18T02:34:02.004Z,27.13
2022-12-18T02:36:39.939Z,28.77
2022-12-18T02:39:08.797Z,27.83
2022-12-18T02:41:38.142Z,26.03
2022-12-18T02:44:09.223Z,26.73
2022-12-18T02:46:38.677Z,24.83
2022-12-18T02:49:28.662Z,25.67
2022-12-18T02:52:21.536Z,25.27
2022-12-18T02:55:00.953Z,26.20
2022-12-18T02:58:08.667Z,24.67
2022-12-18T03:00:48.619Z,28.10
2022-12-18T03:03:18.669Z,25.40
2022-12-18T03:06:13.419Z,27.50
2022-12-18T03:08:46.128Z,24.07
2022-12-18T03:11:14.927Z,26.50
2022-12-18T03:13:43.369Z,22.60
2022-12-18T03:16:14.027Z,25.00
2022-12-18T03:18:50.189Z,24.17
2022-12-18T03:21:18.788Z,21.90
2022-12-18T03:23:49.284Z,22.73
2022-12-18T03:26:19.648Z,21.23
2022-12-18T03:28:51.946Z,20.43
2022-12-18T03:31:21.745Z,19.87
2022-12-18T03:34:00.502Z,21.50
2022-12-18T03:36:36.308Z,19.23
2022-12-18T03:39:03.820Z,20.90
2022-12-18T03:41:39.692Z,18.47
2022-12-18T03:44:27.263Z,20.80
2022-12-18T03:46:55.515Z,20.73
2022-12-18T03:49:29.408Z,18.63
2022-12-18T03:52:07.875Z,19.87
2022-12-18T03:54:35.519Z,19.43
2022-12-18T03:57:17.405Z,17.50
2022-12-18T03:59:46.321Z,18.07
2022-12-18T04:02:18.440Z,18.67
2022-12-18T04:04:48.523Z,18.03
2022-12-18T04:07:16.402Z,19.03
2022-12-18T04:09:47.328Z,17.57
2022-12-18T04:12:15.484Z,17.37
2022-12-18T04:14:43.148Z,17.33
2022-12-18T04:17:10.852Z,20.90
2022-12-18T04:19:38.270Z,18.13
2022-12-18T04:22:05.605Z,17.27
2022-12-18T04:24:40.353Z,17.53
2022-12-18T04:27:14.938Z,18.80
2022-12-18T04:29:47.038Z,17.07
2022-12-18T04:32:15.699Z,18.93
2022-12-18T04:34:44.992Z,16.83
2022-12-18T04:37:12.735Z,16.00
2022-12-18T04:39:40.366Z,17.47
2022-12-18T04:42:14.791Z,17.57
2022-12-18T04:44:42.098Z,17.23
2022-12-18T04:47:09.347Z,17.23
2022-12-18T04:49:36.629Z,17.47
2022-12-18T04:52:04.064Z,18.20
2022-12-18T04:54:33.935Z,17.70
2022-12-18T04:57:01.219Z,16.03
2022-12-18T04:59:28.481Z,18.27
2022-12-18T05:01:55.942Z,18.07
2022-12-18T05:04:23.249Z,16.80
2022-12-18T05:06:50.514Z,16.37
2022-12-18T05:09:17.749Z,18.67
2022-12-18T05:11:47.609Z,17.33
2022-12-18T05:14:14.951Z,19.40
2022-12-18T05:16:42.191Z,17.40
2022-12-18T05:19:09.603Z,16.77
2022-12-18T05:21:36.829Z,18.10
2022-12-18T05:24:04.254Z,15.53
2022-12-18T05:26:31.713Z,18.47
2022-12-18T05:28:58.952Z,18.03
2022-12-18T05:31:26.326Z,16.53
2022-12-18T05:33:53.635Z,18.13
2022-12-18T05:36:21.050Z,15.93
2022-12-18T05:38:48.256Z,16.40
2022-12-18T05:41:15.446Z,16.27
2022-12-18T05:43:43.291Z,18.27
2022-12-18T05:46:15.450Z,16.73
2022-12-18T05:48:43.365Z,17.77
2022-12-18T05:51:12.383Z,17.73
2022-12-18T05:53:40.347Z,19.30
2022-12-18T05:56:10.996Z,18.17
2022-12-18T05:58:38.751Z,16.80
2022-12-18T06:01:10.360Z,18.33
2022-12-18T06:03:56.424Z,17.37
2022-12-18T06:06:27.717Z,17.23
2022-12-18T06:08:55.593Z,18.00
2022-12-18T06:11:24.481Z,15.63
2022-12-18T06:13:57.948Z,17.67
2022-12-18T06:16:25.730Z,17.57
2022-12-18T06:18:53.185Z,16.33
2022-12-18T06:21:20.810Z,17.30
2022-12-18T06:23:48.063Z,15.70
2022-12-18T06:26:15.592Z,17.30
2022-12-18T06:28:42.984Z,16.13
2022-12-18T06:31:10.290Z,15.03
2022-12-18T06:33:37.818Z,17.87
2022-12-18T06:36:12.752Z,16.27
2022-12-18T06:38:41.198Z,18.70
2022-12-18T06:41:14.557Z,19.47
2022-12-18T06:43:42.424Z,18.30
2022-12-18T06:46:10.293Z,18.60
2022-12-18T06:48:37.598Z,17.63
2022-12-18T06:51:04.996Z,17.83
2022-12-18T06:53:33.233Z,19.30
2022-12-18T06:56:09.394Z,19.33
2022-12-18T06:58:37.319Z,16.87
2022-12-18T07:01:05.595Z,18.50
2022-12-18T07:03:33.316Z,17.73
2022-12-18T07:06:00.614Z,20.30
2022-12-18T07:08:27.784Z,17.63
2022-12-18T07:10:56.479Z,18.57
2022-12-18T07:13:24.393Z,19.37
2022-12-18T07:15:51.588Z,18.83
2022-12-18T07:18:18.840Z,20.30
2022-12-18T07:20:46.028Z,21.77
2022-12-18T07:23:15.265Z,23.30
2022-12-18T07:25:42.578Z,22.43
2022-12-18T07:28:15.671Z,21.83
2022-12-18T07:30:44.504Z,22.43
2022-12-18T07:33:11.723Z,19.93
2022-12-18T07:35:39.102Z,20.70
2022-12-18T07:38:07.024Z,23.57
2022-12-18T07:40:34.289Z,23.87
2022-12-18T07:43:01.556Z,21.83
2022-12-18T07:45:28.820Z,20.90
2022-12-18T07:47:59.096Z,22.53
2022-12-18T07:50:26.391Z,20.23
2022-12-18T07:52:53.574Z,23.17
2022-12-18T07:55:20.913Z,24.00
2022-12-18T07:57:50.980Z,23.70
2022-12-18T08:00:19.930Z,22.50
2022-12-18T08:02:48.862Z,22.73
2022-12-18T08:05:16.267Z,23.33
2022-12-18T08:07:43.508Z,22.03
2022-12-18T08:10:10.863Z,23.10
2022-12-18T08:12:39.320Z,25.00
2022-12-18T08:15:07.108Z,23.87
2022-12-18T08:17:34.384Z,25.73
2022-12-18T08:20:02.179Z,27.40
2022-12-18T08:22:29.477Z,33.77
2022-12-18T08:24:56.727Z,32.47
2022-12-18T08:27:30.964Z,32.20
2022-12-18T08:29:59.038Z,38.90
2022-12-18T08:32:27.253Z,30.90
2022-12-18T08:34:54.489Z,28.23
2022-12-18T08:37:21.754Z,28.63
2022-12-18T08:39:49.073Z,25.80
2022-12-18T08:42:34.824Z,26.67
2022-12-18T08:45:02.486Z,25.40
2022-12-18T08:47:30.180Z,28.07
2022-12-18T08:49:57.503Z,27.00
2022-12-18T08:52:24.863Z,24.03
2022-12-18T08:54:52.077Z,25.73
2022-12-18T08:57:19.298Z,26.47
2022-12-18T08:59:46.629Z,52.07
2022-12-18T09:02:14.089Z,37.27
2022-12-18T09:04:41.579Z,30.27
2022-12-18T09:07:08.877Z,29.23
2022-12-18T09:09:36.272Z,29.73
2022-12-18T09:12:03.587Z,30.80
2022-12-18T09:14:30.834Z,32.33
2022-12-18T09:16:58.051Z,28.77
2022-12-18T09:19:25.405Z,32.20
2022-12-18T09:21:52.673Z,34.10
2022-12-18T09:24:20.054Z,33.60
2022-12-18T09:26:53.622Z,35.20
2022-12-18T09:29:24.868Z,36.87
2022-12-18T09:31:52.165Z,37.13
2022-12-18T09:34:21.935Z,36.07
2022-12-18T09:36:50.035Z,34.23
2022-12-18T09:39:17.665Z,34.73
2022-12-18T09:41:50.992Z,37.13
2022-12-18T09:44:36.799Z,33.23
2022-12-18T09:47:12.127Z,35.93
2022-12-18T09:49:42.292Z,31.83
2022-12-18T09:52:09.721Z,37.57
2022-12-18T09:54:42.817Z,30.47
2022-12-18T09:57:17.198Z,30.03
2022-12-18T09:59:45.670Z,30.57
2022-12-18T10:02:17.131Z,33.43
2022-12-18T10:04:44.731Z,30.03
2022-12-18T10:07:17.472Z,31.73
2022-12-18T10:10:14.012Z,28.73
2022-12-18T10:12:41.527Z,28.93
2022-12-18T10:15:09.125Z,29.03
2022-12-18T10:17:39.405Z,31.17
2022-12-18T10:20:09.826Z,29.57
2022-12-18T10:22:52.652Z,29.80
2022-12-18T10:25:38.560Z,30.97
2022-12-18T10:28:16.394Z,31.17
2022-12-18T10:30:44.709Z,27.87
2022-12-18T10:33:20.305Z,30.97
2022-12-18T10:35:48.851Z,27.50
2022-12-18T10:38:19.006Z,31.23
2022-12-18T10:40:55.309Z,28.70
2022-12-18T10:43:24.700Z,32.47
2022-12-18T10:46:04.523Z,28.53
2022-12-18T10:48:32.880Z,29.20
2022-12-18T10:51:15.613Z,25.87
2022-12-18T10:53:44.436Z,27.90
2022-12-18T10:56:31.187Z,35.73
2022-12-18T10:59:17.521Z,30.80
2022-12-18T11:01:48.354Z,26.67
2022-12-18T11:04:25.951Z,27.20
2022-12-18T11:07:00.911Z,23.13
2022-12-18T11:09:57.504Z,24.60
2022-12-18T11:12:25.153Z,23.00
2022-12-18T11:14:53.234Z,22.97
2022-12-18T11:17:26.520Z,24.77
2022-12-18T11:19:58.500Z,22.00
2022-12-18T11:22:33.140Z,22.00
2022-12-18T11:25:32.448Z,23.73
2022-12-18T11:27:53.941Z,22.23
2022-12-18T11:30:34.614Z,23.57
2022-12-18T11:33:11.915Z,18.27
2022-12-18T11:35:50.769Z,20.97
2022-12-18T11:38:26.285Z,26.20
2022-12-18T11:41:06.287Z,20.37
2022-12-18T11:43:42.076Z,22.93
2022-12-18T11:46:19.589Z,22.70
2022-12-18T11:49:07.245Z,18.23
2022-12-18T11:51:45.166Z,23.10
2022-12-18T11:54:16.796Z,22.60
2022-12-18T11:56:56.532Z,23.93
2022-12-18T11:59:33.467Z,19.40
2022-12-18T12:02:05.790Z,21.33
2022-12-18T12:05:00.882Z,20.07
2022-12-18T12:08:19.941Z,20.10
2022-12-18T12:11:05.892Z,22.27
2022-12-18T12:13:36.724Z,23.40
2022-12-18T12:16:04.017Z,21.83
2022-12-18T12:18:37.708Z,21.70
2022-12-18T12:21:23.996Z,22.30
2022-12-18T12:23:54.477Z,19.83
2022-12-18T12:26:31.056Z,26.17
2022-12-18T12:28:58.552Z,22.40
2022-12-18T12:31:49.947Z,20.97
2022-12-18T12:34:17.321Z,22.10
2022-12-18T12:37:00.770Z,23.17
2022-12-18T12:39:35.355Z,20.93
2022-12-18T12:42:22.597Z,20.80
2022-12-18T12:44:56.357Z,18.07
2022-12-18T12:47:36.989Z,19.03
2022-12-18T12:50:08.051Z,24.90
2022-12-18T12:52:40.848Z,23.67
2022-12-18T12:55:22.777Z,22.23
2022-12-18T12:58:17.082Z,24.53
2022-12-18T13:01:23.506Z,25.00
2022-12-18T13:04:21.774Z,26.00
2022-12-18T13:07:13.369Z,25.93
2022-12-18T13:10:20.859Z,25.13
2022-12-18T13:13:01.978Z,28.97
2022-12-18T13:15:31.663Z,24.90
2022-12-18T13:18:30.013Z,28.00
2022-12-18T13:21:03.262Z,27.53
2022-12-18T13:23:34.413Z,28.50
2022-12-18T13:26:07.560Z,26.63
2022-12-18T13:28:49.782Z,29.47
2022-12-18T13:31:42.900Z,31.30
2022-12-18T13:37:32.872Z,29.20
2022-12-18T13:39:59.793Z,28.03
2022-12-18T13:42:56.761Z,24.03
2022-12-18T13:45:43.442Z,27.13
2022-12-18T13:48:24.343Z,28.73
2022-12-18T13:50:58.368Z,27.43
2022-12-18T13:53:30.586Z,23.53
2022-12-18T13:55:57.959Z,21.70
2022-12-18T13:58:25.235Z,24.13
2022-12-18T14:00:52.360Z,21.97
2022-12-18T14:03:22.850Z,19.97
2022-12-18T14:06:17.381Z,24.00
2022-12-18T14:08:45.775Z,25.17
2022-12-18T14:11:23.966Z,22.17
2022-12-18T14:13:53.736Z,22.47
2022-12-18T14:16:20.917Z,18.27
2022-12-18T14:18:56.890Z,20.70
2022-12-18T14:21:33.553Z,20.97
2022-12-18T14:24:20.800Z,21.23
2022-12-18T14:26:50.596Z,22.50
2022-12-18T14:29:25.537Z,20.17
2022-12-18T14:32:18.695Z,23.47
2022-12-18T14:34:51.884Z,22.43
2022-12-18T14:37:23.117Z,26.03
2022-12-18T14:39:58.039Z,24.10
2022-12-18T14:42:29.012Z,25.33
2022-12-18T14:45:40.973Z,24.87
2022-12-18T14:48:23.447Z,24.20
2022-12-18T14:51:19.689Z,26.43
2022-12-18T14:54:01.376Z,20.40
2022-12-18T14:56:37.131Z,25.00
2022-12-18T14:59:22.205Z,18.93
2022-12-18T15:02:23.907Z,24.30
2022-12-18T15:05:19.413Z,24.13
2022-12-18T15:07:51.911Z,26.70
2022-12-18T15:10:18.750Z,22.13
2022-12-18T15:12:46.655Z,21.60
2022-12-18T15:15:38.820Z,25.60
2022-12-18T15:18:21.079Z,23.90
2022-12-18T15:20:57.762Z,23.07
2022-12-18T15:23:28.500Z,23.87
2022-12-18T15:26:00.639Z,25.80
2022-12-18T15:28:32.512Z,23.80
2022-12-18T15:31:20.863Z,24.60
2022-12-18T15:33:54.105Z,22.47
2022-12-18T15:36:26.687Z,22.37
2022-12-18T15:39:05.340Z,25.23
2022-12-18T15:41:36.195Z,25.57
2022-12-18T15:44:04.022Z,22.73
2022-12-18T15:46:31.741Z,22.73
2022-12-18T15:49:02.292Z,22.73
2022-12-18T15:51:37.807Z,25.00
2022-12-18T15:54:10.237Z,26.53
2022-12-18T15:56:55.599Z,23.77
2022-12-18T15:59:24.092Z,25.40
2022-12-18T16:01:54.062Z,23.77
2022-12-18T16:04:23.055Z,27.43
2022-12-18T16:07:13.814Z,25.27
2022-12-18T16:09:37.802Z,25.90
2022-12-18T16:12:05.294Z,29.97
2022-12-18T16:14:33.357Z,29.73
2022-12-18T16:17:03.343Z,23.83
2022-12-18T16:19:31.032Z,25.63
2022-12-18T16:21:59.407Z,25.17
2022-12-18T16:24:29.062Z,25.63
2022-12-18T16:26:58.654Z,27.87
2022-12-18T16:29:28.239Z,27.00
2022-12-18T16:31:56.262Z,26.10
2022-12-18T16:34:32.102Z,25.10
2022-12-18T16:37:06.959Z,25.43
2022-12-18T16:39:35.443Z,26.50
2022-12-18T16:42:06.083Z,26.17
2022-12-18T16:44:34.425Z,27.17
2022-12-18T16:47:03.014Z,28.30
2022-12-18T16:49:30.885Z,26.73
2022-12-18T16:51:57.987Z,23.87
2022-12-18T16:54:30.466Z,27.23
2022-12-18T16:56:58.010Z,27.93
2022-12-18T16:59:26.784Z,24.83
2022-12-18T17:01:53.977Z,29.87
2022-12-18T17:04:20.919Z,28.03
2022-12-18T17:06:52.076Z,25.40
2022-12-18T17:09:23.688Z,25.13
2022-12-18T17:11:51.260Z,26.07
2022-12-18T17:14:20.574Z,29.37
2022-12-18T17:16:57.816Z,23.70
2022-12-18T17:19:35.250Z,27.77
2022-12-18T17:22:02.497Z,25.73
2022-12-18T17:24:34.537Z,26.37
2022-12-18T17:27:02.820Z,27.50
2022-12-18T17:29:30.118Z,22.37
2022-12-18T17:31:57.285Z,25.90
2022-12-18T17:34:27.190Z,22.43
2022-12-18T17:36:54.190Z,25.43
2022-12-18T17:39:21.596Z,28.03
2022-12-18T17:41:49.229Z,27.37
2022-12-18T17:44:17.255Z,30.10
2022-12-18T17:46:44.332Z,28.03
2022-12-18T17:49:12.184Z,24.63
2022-12-18T17:51:39.226Z,26.80
2022-12-18T17:54:06.495Z,24.43
2022-12-18T17:56:33.759Z,28.67
2022-12-18T17:59:01.221Z,28.00
2022-12-18T18:01:28.264Z,28.47
2022-12-18T18:03:56.271Z,24.93
2022-12-18T18:06:24.164Z,27.13
2022-12-18T18:08:51.260Z,23.00
2022-12-18T18:11:38.904Z,23.50
2022-12-18T18:14:14.627Z,23.37
2022-12-18T18:16:44.489Z,24.77
2022-12-18T18:19:19.912Z,27.37
2022-12-18T18:21:49.103Z,21.97
2022-12-18T18:24:19.205Z,20.03
2022-12-18T18:26:46.921Z,24.50
2022-12-18T18:29:19.881Z,21.17
2022-12-18T18:31:47.122Z,22.87
2022-12-18T18:34:19.166Z,21.07
2022-12-18T18:36:46.411Z,22.50
2022-12-18T18:39:14.128Z,23.47
2022-12-18T18:41:41.394Z,22.03
2022-12-18T18:44:11.337Z,22.30
2022-12-18T18:46:38.194Z,24.30
2022-12-18T18:49:05.656Z,24.17
2022-12-18T18:51:35.109Z,19.63
2022-12-18T18:54:02.644Z,22.40
2022-12-18T18:59:17.062Z,21.40
2022-12-18T19:01:44.521Z,26.17
2022-12-18T19:04:11.534Z,19.97
2022-12-18T19:06:39.044Z,23.33
2022-12-18T19:09:06.691Z,23.40
2022-12-18T19:11:52.767Z,23.97
2022-12-18T19:14:20.350Z,24.57
2022-12-18T19:16:50.571Z,21.93
2022-12-18T19:19:21.024Z,23.40
2022-12-18T19:21:48.372Z,26.50
2022-12-18T19:24:15.321Z,29.07
2022-12-18T19:26:42.180Z,25.30
2022-12-18T19:29:11.367Z,26.63
2022-12-18T19:31:38.659Z,24.83
2022-12-18T19:34:07.202Z,28.97
2022-12-18T19:36:36.380Z,21.03
2022-12-18T19:39:12.833Z,22.10
2022-12-18T19:41:42.162Z,24.27
2022-12-18T19:44:12.293Z,23.03
2022-12-18T19:46:41.968Z,22.70
2022-12-18T19:49:10.472Z,22.00
2022-12-18T19:51:37.539Z,27.63
2022-12-18T19:54:17.018Z,24.40
2022-12-18T19:56:45.111Z,24.77
2022-12-18T19:59:12.494Z,24.30
2022-12-18T20:01:39.475Z,19.53
2022-12-18T20:04:06.695Z,23.83
2022-12-18T20:06:51.383Z,23.83
2022-12-18T20:09:19.563Z,22.70
2022-12-18T20:11:47.791Z,24.17
2022-12-18T20:14:19.597Z,24.73
2022-12-18T20:16:50.898Z,25.30
2022-12-18T20:19:18.566Z,23.17
2022-12-18T20:21:46.067Z,22.57
2022-12-18T20:24:13.074Z,21.63
2022-12-18T20:26:40.534Z,24.73
2022-12-18T20:29:07.395Z,22.77
2022-12-18T20:31:34.562Z,21.17
2022-12-18T20:34:02.591Z,24.67
2022-12-18T20:36:30.649Z,27.90
2022-12-18T20:39:00.440Z,24.07
2022-12-18T20:41:37.647Z,20.50
2022-12-18T20:44:22.582Z,23.20
2022-12-18T20:46:56.595Z,21.30
2022-12-18T20:49:25.506Z,24.70
2022-12-18T20:51:54.048Z,22.80
2022-12-18T20:54:22.505Z,22.93
2022-12-18T20:56:49.550Z,21.37
2022-12-18T20:59:17.416Z,18.60
2022-12-18T21:01:48.437Z,21.13
2022-12-18T21:04:18.525Z,47.03
2022-12-18T21:06:51.257Z,22.33
2022-12-18T21:09:19.350Z,22.97
2022-12-18T21:12:05.202Z,24.20
2022-12-18T21:14:32.111Z,23.03
2022-12-18T21:17:01.835Z,20.63
2022-12-18T21:19:29.711Z,23.13
2022-12-18T21:21:57.723Z,24.33
2022-12-18T21:24:25.507Z,23.77
2022-12-18T21:26:52.943Z,26.17
2022-12-18T21:29:25.476Z,27.63
2022-12-18T21:31:56.475Z,29.53
2022-12-18T21:34:26.614Z,25.20
2022-12-18T21:36:55.399Z,25.53
2022-12-18T21:39:23.065Z,27.90
2022-12-18T21:42:09.315Z,26.50
2022-12-18T21:44:42.110Z,25.17
2022-12-18T21:47:21.488Z,23.27
2022-12-18T21:49:51.186Z,31.50
2022-12-18T21:52:18.329Z,28.37
2022-12-18T21:54:45.253Z,29.47
2022-12-18T21:57:13.381Z,28.93
2022-12-18T21:59:42.653Z,28.23
2022-12-18T22:02:15.387Z,30.33
2022-12-18T22:04:44.176Z,28.33
2022-12-18T22:07:11.545Z,31.83
2022-12-18T22:09:38.424Z,32.33
2022-12-18T22:12:06.097Z,32.37
2022-12-18T22:14:33.051Z,30.57
2022-12-18T22:16:59.900Z,30.77
2022-12-18T22:19:27.049Z,27.97
2022-12-18T22:21:57.795Z,27.53
2022-12-18T22:24:26.958Z,34.70
2022-12-18T22:27:01.990Z,33.93
2022-12-18T22:29:47.617Z,30.03
2022-12-18T22:32:24.863Z,30.87
2022-12-18T22:35:07.955Z,26.87
2022-12-18T22:37:37.484Z,28.60
2022-12-18T22:40:12.231Z,30.13
2022-12-18T22:42:40.519Z,31.20
2022-12-18T22:45:09.383Z,32.40
2022-12-18T22:47:36.210Z,27.63
2022-12-18T22:50:03.312Z,29.40
2022-12-18T22:52:30.090Z,33.17
2022-12-18T22:54:56.979Z,30.30
2022-12-18T22:57:24.580Z,28.53
2022-12-18T22:59:52.185Z,29.07
2022-12-18T23:02:19.822Z,25.77
2022-12-18T23:04:50.185Z,26.57
2022-12-18T23:07:17.627Z,29.27
2022-12-18T23:09:44.914Z,31.80
2022-12-18T23:12:16.031Z,26.97
2022-12-18T23:14:47.130Z,28.57
2022-12-18T23:17:14.000Z,29.30
2022-12-18T23:19:47.147Z,28.43
2022-12-18T23:22:15.997Z,30.37
2022-12-18T23:24:42.792Z,32.23
2022-12-18T23:27:11.906Z,33.30
2022-12-18T23:29:40.015Z,28.60
2022-12-18T23:32:07.316Z,32.03
2022-12-18T23:34:34.200Z,29.57
2022-12-18T23:37:01.191Z,29.73
2022-12-18T23:39:30.036Z,28.37
2022-12-18T23:42:00.507Z,30.13
2022-12-18T23:44:27.965Z,30.47
2022-12-18T23:46:55.337Z,31.83
2022-12-18T23:49:22.600Z,29.33
2022-12-18T23:51:49.910Z,32.67
2022-12-18T23:54:16.800Z,31.43
2022-12-18T23:56:43.736Z,30.50
2022-12-18T23:59:10.614Z,30.97
